Time;durP1;ratioP1;P1;durP2;ratioP2;P2;SDS_P1;SDS_P2;PMS_P1;PMS_P2;Temp;Humidity;BMP_temperature;BMP_pressure;BME280_temperature;BME280_humidity;BME280_pressure;Samples;Min_cycle;Max_cycle;Signal;HPM_P1;HPM_P2
2022/08/21 00:00:47;;;;;;;9.55;2.30;;;16.30;99.90;;;;;;5050607;28;20024;-58
2022/08/21 00:03:13;;;;;;;8.63;2.40;;;16.20;99.90;;;;;;5050679;28;20037;-58
2022/08/21 00:05:43;;;;;;;6.15;2.00;;;16.20;99.90;;;;;;5050805;28;20431;-58
2022/08/21 00:08:09;;;;;;;10.38;2.83;;;16.10;99.90;;;;;;5050755;28;20029;-59
2022/08/21 00:10:35;;;;;;;10.18;2.33;;;16.00;99.90;;;;;;5050649;28;20442;-58
2022/08/21 00:13:06;;;;;;;10.02;2.58;;;15.80;99.90;;;;;;5051016;28;20065;-58
2022/08/21 00:15:35;;;;;;;7.68;2.55;;;15.70;99.90;;;;;;5050434;28;20039;-58
2022/08/21 00:18:02;;;;;;;8.55;2.42;;;15.60;99.90;;;;;;5050949;28;20432;-58
2022/08/21 00:20:28;;;;;;;9.82;2.60;;;15.60;99.90;;;;;;5050537;28;20079;-59
2022/08/21 00:22:53;;;;;;;5.85;2.60;;;15.50;99.90;;;;;;5050699;28;20658;-58
2022/08/21 00:25:19;;;;;;;9.32;2.97;;;15.50;99.90;;;;;;5050447;28;20033;-58
2022/08/21 00:27:46;;;;;;;10.00;3.17;;;15.40;99.90;;;;;;5050846;28;20032;-58
2022/08/21 00:30:14;;;;;;;10.57;3.13;;;15.40;99.90;;;;;;5050767;28;20033;-58
2022/08/21 00:32:40;;;;;;;11.23;3.25;;;15.30;99.90;;;;;;5050645;28;20029;-58
2022/08/21 00:35:11;;;;;;;15.82;3.10;;;15.20;99.90;;;;;;5050490;28;20021;-58
2022/08/21 00:37:38;;;;;;;16.30;2.97;;;15.30;99.90;;;;;;5050543;28;20025;-58
2022/08/21 00:40:05;;;;;;;10.55;3.15;;;15.30;99.90;;;;;;5049410;28;20025;-58
2022/08/21 00:42:31;;;;;;;8.10;3.28;;;15.30;99.90;;;;;;5050489;28;20112;-58
2022/08/21 00:44:57;;;;;;;12.45;3.30;;;15.30;99.90;;;;;;5052309;28;20096;-58
2022/08/21 00:47:23;;;;;;;9.10;2.80;;;15.20;99.90;;;;;;5053967;28;20029;-59
2022/08/21 00:49:49;;;;;;;11.88;3.33;;;15.10;99.90;;;;;;5054641;28;20032;-58
2022/08/21 00:52:20;;;;;;;12.63;3.30;;;15.00;99.90;;;;;;5053944;28;20027;-58
2022/08/21 00:54:48;;;;;;;11.00;3.30;;;15.00;99.90;;;;;;5052706;28;20516;-58
2022/08/21 00:57:18;;;;;;;9.25;3.17;;;15.00;99.90;;;;;;5053991;28;20394;-58
2022/08/21 00:59:47;;;;;;;10.20;3.92;;;15.00;99.90;;;;;;5053902;28;20049;-58
2022/08/21 01:02:13;;;;;;;10.52;3.40;;;15.00;99.90;;;;;;5053690;28;20025;-58
2022/08/21 01:04:39;;;;;;;9.00;3.63;;;15.00;99.90;;;;;;5053937;28;20025;-58
2022/08/21 01:07:05;;;;;;;10.60;3.40;;;15.00;99.90;;;;;;5053652;28;20021;-59
2022/08/21 01:09:31;;;;;;;10.15;3.50;;;15.10;99.90;;;;;;5053945;28;20096;-58
2022/08/21 01:11:57;;;;;;;10.90;3.45;;;15.00;99.90;;;;;;5053699;28;20035;-58
2022/08/21 01:14:22;;;;;;;7.60;3.38;;;15.00;99.90;;;;;;5053669;28;20094;-58
2022/08/21 01:16:51;;;;;;;8.32;2.90;;;15.20;99.90;;;;;;5053673;28;20021;-58
2022/08/21 01:19:19;;;;;;;11.52;2.80;;;15.20;99.90;;;;;;5053698;28;20375;-58
2022/08/21 01:21:45;;;;;;;11.38;3.17;;;15.30;99.90;;;;;;5053457;28;20032;-58
2022/08/21 01:24:11;;;;;;;10.93;3.03;;;15.30;99.90;;;;;;5053203;28;20498;-58
2022/08/21 01:26:37;;;;;;;8.02;2.92;;;15.30;99.90;;;;;;5053632;28;20033;-58
2022/08/21 01:29:11;;;;;;;9.82;3.25;;;15.30;99.90;;;;;;5053351;28;20155;-59
2022/08/21 01:31:37;;;;;;;8.75;3.15;;;15.30;99.90;;;;;;5052952;28;20025;-57
2022/08/21 01:34:03;;;;;;;12.57;3.10;;;15.20;99.90;;;;;;5053200;28;20063;-57
2022/08/21 01:36:30;;;;;;;9.63;3.33;;;15.20;99.90;;;;;;5053614;28;20416;-58
2022/08/21 01:38:56;;;;;;;10.43;2.90;;;15.20;99.90;;;;;;5053262;28;20390;-58
2022/08/21 01:41:21;;;;;;;9.95;3.00;;;15.10;99.90;;;;;;5053090;28;20095;-58
2022/08/21 01:43:47;;;;;;;9.93;3.03;;;15.10;99.90;;;;;;5053142;28;20033;-58
2022/08/21 01:46:13;;;;;;;11.32;3.30;;;15.10;99.90;;;;;;5053227;28;20032;-58
2022/08/21 01:48:40;;;;;;;10.50;2.92;;;15.10;99.90;;;;;;5053123;28;20124;-57
2022/08/21 01:51:05;;;;;;;7.55;2.90;;;15.10;99.90;;;;;;5052859;28;20100;-58
2022/08/21 01:53:35;;;;;;;12.77;3.38;;;15.10;99.90;;;;;;5053052;28;20132;-58
2022/08/21 01:56:01;;;;;;;12.73;2.97;;;15.20;99.90;;;;;;5050525;28;20032;-58
2022/08/21 01:58:27;;;;;;;11.73;3.08;;;15.20;99.90;;;;;;5051569;28;20071;-58
2022/08/21 02:00:53;;;;;;;9.15;3.47;;;15.20;99.90;;;;;;5052831;28;20100;-58
2022/08/21 02:03:18;;;;;;;7.22;3.05;;;15.30;99.90;;;;;;5051205;28;20417;-57
2022/08/21 02:05:44;;;;;;;12.23;3.50;;;15.20;99.90;;;;;;5052791;28;20035;-58
2022/08/21 02:08:10;;;;;;;6.72;2.80;;;15.20;99.90;;;;;;5052715;28;20047;-58
2022/08/21 02:10:35;;;;;;;12.25;2.97;;;15.20;99.90;;;;;;5052442;28;20025;-58
2022/08/21 02:13:01;;;;;;;8.18;2.60;;;15.20;99.90;;;;;;5052852;28;20386;-57
2022/08/21 02:15:29;;;;;;;7.72;2.78;;;15.10;99.90;;;;;;5052534;28;20039;-57
2022/08/21 02:17:57;;;;;;;10.60;3.17;;;15.00;99.90;;;;;;5052449;28;20032;-57
2022/08/21 02:20:34;;;;;;;7.40;2.40;;;15.00;99.90;;;;;;5052329;28;20021;-57
2022/08/21 02:23:00;;;;;;;14.88;3.35;;;15.00;99.90;;;;;;5052560;28;20036;-57
2022/08/21 02:25:26;;;;;;;8.38;3.53;;;15.00;99.90;;;;;;5051963;28;20021;-58
2022/08/21 02:27:53;;;;;;;10.65;2.70;;;14.90;99.90;;;;;;5052193;28;20040;-58
2022/08/21 02:30:30;;;;;;;10.68;3.00;;;14.90;99.90;;;;;;5052112;28;20025;-57
2022/08/21 02:32:57;;;;;;;12.13;3.08;;;14.90;99.90;;;;;;5050847;28;20029;-58
2022/08/21 02:35:23;;;;;;;12.70;3.10;;;14.90;99.90;;;;;;5051925;28;20029;-58
2022/08/21 02:37:52;;;;;;;12.25;3.28;;;15.00;99.90;;;;;;5050866;28;20037;-58
2022/08/21 02:40:22;;;;;;;7.53;2.70;;;14.90;99.90;;;;;;5051934;28;20040;-58
2022/08/21 02:42:48;;;;;;;9.00;2.92;;;14.90;99.90;;;;;;5051736;28;20033;-58
2022/08/21 02:45:15;;;;;;;8.00;2.58;;;14.90;99.90;;;;;;5051775;28;20024;-58
2022/08/21 02:47:50;;;;;;;8.43;2.50;;;14.80;99.90;;;;;;5052134;28;20028;-58
2022/08/21 02:50:23;;;;;;;6.07;2.90;;;14.80;99.90;;;;;;5051841;28;20035;-58
2022/08/21 02:52:52;;;;;;;8.10;2.80;;;14.80;99.90;;;;;;5051695;28;20028;-58
2022/08/21 02:55:18;;;;;;;8.40;2.90;;;14.90;99.90;;;;;;5051573;28;20033;-58
2022/08/21 02:57:44;;;;;;;10.55;3.00;;;14.80;99.90;;;;;;5051684;28;20477;-58
2022/08/21 03:00:11;;;;;;;12.02;3.38;;;14.80;99.90;;;;;;5051718;28;20044;-58
2022/08/21 03:02:37;;;;;;;11.02;3.22;;;14.70;99.90;;;;;;5051641;28;20513;-58
2022/08/21 03:05:05;;;;;;;9.88;3.30;;;14.70;99.90;;;;;;5051796;28;20049;-58
2022/08/21 03:07:31;;;;;;;7.40;3.13;;;14.70;99.90;;;;;;5051319;28;20032;-61
2022/08/21 03:09:56;;;;;;;9.10;3.00;;;14.70;99.90;;;;;;5051752;28;20544;-58
2022/08/21 03:12:23;;;;;;;12.88;3.22;;;14.70;99.90;;;;;;5051492;28;20580;-58
2022/08/21 03:14:48;;;;;;;14.85;3.03;;;14.70;99.90;;;;;;5051456;28;20074;-58
2022/08/21 03:17:14;;;;;;;11.57;3.28;;;14.70;99.90;;;;;;5051489;28;20029;-58
2022/08/21 03:19:40;;;;;;;6.63;2.90;;;14.70;99.90;;;;;;5051771;28;20386;-57
2022/08/21 03:22:05;;;;;;;12.45;3.90;;;14.70;99.90;;;;;;5051196;28;20025;-58
2022/08/21 03:24:31;;;;;;;7.60;3.00;;;14.60;99.90;;;;;;5051620;28;20033;-58
2022/08/21 03:26:57;;;;;;;8.02;3.25;;;14.60;99.90;;;;;;5051190;28;20060;-58
2022/08/21 03:29:23;;;;;;;7.90;2.80;;;14.60;99.90;;;;;;5051281;28;20098;-58
2022/08/21 03:31:48;;;;;;;10.55;3.60;;;14.60;99.90;;;;;;5051091;28;20122;-58
2022/08/21 03:34:14;;;;;;;10.15;3.70;;;14.60;99.90;;;;;;5051187;28;20104;-58
2022/08/21 03:36:40;;;;;;;12.55;3.85;;;14.60;99.90;;;;;;5051463;28;20088;-58
2022/08/21 03:39:05;;;;;;;9.00;3.60;;;14.70;99.90;;;;;;5051346;28;20025;-58
2022/08/21 03:41:31;;;;;;;10.90;3.97;;;14.70;99.90;;;;;;5051117;28;20553;-57
2022/08/21 03:43:57;;;;;;;9.55;3.58;;;14.70;99.90;;;;;;5051177;28;20116;-57
2022/08/21 03:46:22;;;;;;;10.32;3.67;;;14.70;99.90;;;;;;5050866;28;20108;-59
2022/08/21 03:48:48;;;;;;;9.25;3.38;;;14.70;99.90;;;;;;5051374;28;20128;-58
2022/08/21 03:51:15;;;;;;;9.23;3.00;;;14.60;99.90;;;;;;5051011;28;20436;-57
2022/08/21 03:53:40;;;;;;;11.13;3.63;;;14.60;99.90;;;;;;5050792;28;20028;-58
2022/08/21 03:56:06;;;;;;;9.50;3.78;;;14.50;99.90;;;;;;5050929;28;20028;-58
2022/08/21 03:58:32;;;;;;;8.80;3.58;;;14.60;99.90;;;;;;5050770;28;20476;-58
2022/08/21 04:01:00;;;;;;;10.32;3.50;;;14.50;99.90;;;;;;5050895;28;20029;-58
2022/08/21 04:03:26;;;;;;;11.30;3.65;;;14.40;99.90;;;;;;5050818;28;20444;-58
2022/08/21 04:05:52;;;;;;;11.15;3.80;;;14.30;99.90;;;;;;5049376;28;20132;-58
2022/08/21 04:08:18;;;;;;;10.85;3.70;;;14.40;99.90;;;;;;5049833;28;20108;-58
2022/08/21 04:10:47;;;;;;;12.23;3.60;;;14.40;99.90;;;;;;5050888;28;20028;-58
2022/08/21 04:13:14;;;;;;;13.02;3.92;;;14.40;99.90;;;;;;5050519;28;20117;-58
2022/08/21 04:15:40;;;;;;;8.63;3.50;;;14.40;99.90;;;;;;5050671;28;20021;-57
2022/08/21 04:18:06;;;;;;;16.40;3.90;;;14.40;99.90;;;;;;5050835;28;20049;-58
2022/08/21 04:20:32;;;;;;;12.95;3.92;;;14.30;99.90;;;;;;5053689;28;20054;-58
2022/08/21 04:22:58;;;;;;;10.38;3.63;;;14.30;99.90;;;;;;5054796;28;20041;-57
2022/08/21 04:25:25;;;;;;;10.18;3.55;;;14.20;99.90;;;;;;5053111;28;20036;-58
2022/08/21 04:27:51;;;;;;;10.13;3.40;;;14.30;99.90;;;;;;5054723;28;20022;-58
2022/08/21 04:30:17;;;;;;;19.67;4.22;;;14.20;99.90;;;;;;5054396;28;20109;-58
2022/08/21 04:32:45;;;;;;;9.50;3.47;;;14.20;99.90;;;;;;5054169;28;20029;-58
2022/08/21 04:35:11;;;;;;;16.17;4.00;;;14.20;99.90;;;;;;5054295;28;20017;-58
2022/08/21 04:37:37;;;;;;;12.07;4.00;;;14.20;99.90;;;;;;5054059;28;20032;-57
2022/08/21 04:40:04;;;;;;;8.35;3.83;;;14.30;99.90;;;;;;5054188;28;20025;-58
2022/08/21 04:42:30;;;;;;;9.30;3.70;;;14.20;99.90;;;;;;5054077;28;20029;-57
2022/08/21 04:44:57;;;;;;;8.77;3.78;;;14.20;99.90;;;;;;5054004;28;20090;-57
2022/08/21 04:47:23;;;;;;;12.73;4.28;;;14.20;99.90;;;;;;5053772;28;20032;-57
2022/08/21 04:49:50;;;;;;;10.90;3.60;;;14.20;99.90;;;;;;5054589;28;20033;-58
2022/08/21 04:52:20;;;;;;;9.50;3.97;;;14.20;99.90;;;;;;5053707;28;20502;-57
2022/08/21 04:54:47;;;;;;;11.40;3.78;;;14.20;99.90;;;;;;5053741;28;20025;-58
2022/08/21 04:57:15;;;;;;;9.77;3.78;;;14.20;99.90;;;;;;5053763;28;20025;-57
2022/08/21 04:59:45;;;;;;;7.88;3.53;;;14.20;99.90;;;;;;5053719;28;20051;-57
2022/08/21 05:02:12;;;;;;;8.48;4.15;;;14.20;99.90;;;;;;5052400;28;20090;-57
2022/08/21 05:04:44;;;;;;;10.20;3.80;;;14.20;99.90;;;;;;5054168;28;20060;-57
2022/08/21 05:07:14;;;;;;;9.10;3.35;;;14.20;99.90;;;;;;5053641;28;20165;-58
2022/08/21 05:09:41;;;;;;;11.00;3.80;;;14.30;99.90;;;;;;5053861;28;20523;-57
2022/08/21 05:12:07;;;;;;;12.90;3.97;;;14.30;99.90;;;;;;5053759;28;20044;-58
2022/08/21 05:14:32;;;;;;;10.88;4.40;;;14.20;99.90;;;;;;5053538;28;20379;-58
2022/08/21 05:16:58;;;;;;;10.68;3.60;;;14.30;99.90;;;;;;5053345;28;20033;-57
2022/08/21 05:19:25;;;;;;;7.78;3.55;;;14.20;99.90;;;;;;5053434;28;20029;-57
2022/08/21 05:21:51;;;;;;;11.23;3.95;;;14.20;99.90;;;;;;5053131;28;20025;-57
2022/08/21 05:24:17;;;;;;;13.05;3.78;;;14.20;99.90;;;;;;5053101;28;20033;-57
2022/08/21 05:26:44;;;;;;;10.27;3.90;;;14.20;99.90;;;;;;5052138;28;20057;-57
2022/08/21 05:29:10;;;;;;;7.75;3.63;;;14.30;99.90;;;;;;5053512;28;20032;-57
2022/08/21 05:31:37;;;;;;;8.48;3.63;;;14.30;99.90;;;;;;5053073;28;20176;-57
2022/08/21 05:34:03;;;;;;;11.35;3.42;;;14.40;99.90;;;;;;5053096;28;20072;-57
2022/08/21 05:36:29;;;;;;;11.88;4.60;;;14.50;99.90;;;;;;5053134;28;20092;-57
2022/08/21 05:38:55;;;;;;;11.13;4.10;;;14.50;99.90;;;;;;5052989;28;20032;-57
2022/08/21 05:41:20;;;;;;;11.98;3.88;;;14.50;99.90;;;;;;5051722;28;20025;-57
2022/08/21 05:43:46;;;;;;;9.25;4.32;;;14.50;99.90;;;;;;5052576;28;20024;-58
2022/08/21 05:46:12;;;;;;;12.20;3.67;;;14.50;99.90;;;;;;5052758;28;20029;-57
2022/08/21 05:48:38;;;;;;;10.70;4.63;;;14.50;99.90;;;;;;5052926;28;20477;-57
2022/08/21 05:51:09;;;;;;;7.07;3.88;;;14.50;99.90;;;;;;5052873;28;20031;-57
2022/08/21 05:53:35;;;;;;;10.13;3.97;;;14.50;99.90;;;;;;5053144;28;20052;-58
2022/08/21 05:56:03;;;;;;;12.27;3.80;;;14.60;99.90;;;;;;5052614;28;20130;-58
2022/08/21 05:58:30;;;;;;;12.77;4.07;;;14.70;99.90;;;;;;5052757;28;20106;-57
2022/08/21 06:00:55;;;;;;;9.40;4.00;;;14.80;99.90;;;;;;5052547;28;20082;-58
2022/08/21 06:03:24;;;;;;;10.63;3.85;;;15.00;99.90;;;;;;5052662;28;20452;-58
2022/08/21 06:05:50;;;;;;;13.57;4.03;;;15.10;99.90;;;;;;5052442;28;20070;-58
2022/08/21 06:08:17;;;;;;;9.10;3.90;;;15.10;99.90;;;;;;5052586;28;20108;-58
2022/08/21 06:10:43;;;;;;;9.32;3.53;;;15.20;99.90;;;;;;5052657;28;20107;-57
2022/08/21 06:13:09;;;;;;;8.90;3.30;;;15.20;99.90;;;;;;5052222;28;20482;-58
2022/08/21 06:15:35;;;;;;;10.60;3.97;;;15.20;99.90;;;;;;5052363;28;20233;-57
2022/08/21 06:18:00;;;;;;;12.27;3.97;;;15.30;99.90;;;;;;5052375;28;20390;-58
2022/08/21 06:20:27;;;;;;;10.60;3.83;;;15.50;99.90;;;;;;5050684;28;20102;-57
2022/08/21 06:22:52;;;;;;;12.25;3.28;;;15.60;99.90;;;;;;5052198;28;20041;-58
2022/08/21 06:25:19;;;;;;;9.07;3.35;;;15.70;99.90;;;;;;5051940;28;20032;-58
2022/08/21 06:27:44;;;;;;;14.02;3.55;;;15.80;99.90;;;;;;5052168;28;20047;-57
2022/08/21 06:30:10;;;;;;;10.25;3.90;;;16.00;99.90;;;;;;5052043;28;20025;-58
2022/08/21 06:32:37;;;;;;;11.23;3.08;;;16.20;99.90;;;;;;5051851;28;20513;-58
2022/08/21 06:35:04;;;;;;;13.07;3.20;;;16.30;99.90;;;;;;5051838;28;20056;-58
2022/08/21 06:37:29;;;;;;;10.00;3.33;;;16.30;99.90;;;;;;5051705;28;20514;-58
2022/08/21 06:39:55;;;;;;;12.63;3.40;;;16.30;99.90;;;;;;5052243;28;20106;-58
2022/08/21 06:42:20;;;;;;;10.45;3.25;;;16.50;99.90;;;;;;5051809;28;20033;-58
2022/08/21 06:44:47;;;;;;;13.13;3.30;;;16.50;99.90;;;;;;5051828;28;20104;-58
2022/08/21 06:47:13;;;;;;;11.50;2.70;;;16.60;99.90;;;;;;5051756;28;20056;-58
2022/08/21 06:49:39;;;;;;;10.07;3.13;;;16.70;99.90;;;;;;5050971;28;20021;-58
2022/08/21 06:52:10;;;;;;;10.85;3.28;;;16.80;99.90;;;;;;5051667;28;20478;-58
2022/08/21 06:54:35;;;;;;;11.13;3.13;;;16.90;99.90;;;;;;5051446;28;20032;-58
2022/08/21 06:57:01;;;;;;;11.48;2.80;;;17.00;99.90;;;;;;5051513;28;20028;-58
2022/08/21 06:59:26;;;;;;;10.70;2.60;;;17.20;99.90;;;;;;5051436;28;20041;-57
2022/08/21 07:01:52;;;;;;;8.90;2.95;;;17.30;99.90;;;;;;5051635;28;20024;-58
2022/08/21 07:04:19;;;;;;;11.20;3.28;;;17.40;99.90;;;;;;5051159;28;20028;-59
2022/08/21 07:06:45;;;;;;;8.63;2.78;;;17.50;99.90;;;;;;5051251;28;20061;-59
2022/08/21 07:09:11;;;;;;;12.52;2.67;;;17.70;99.90;;;;;;5050347;28;20029;-59
2022/08/21 07:11:37;;;;;;;11.00;2.42;;;17.80;99.90;;;;;;5051384;28;20029;-59
2022/08/21 07:14:03;;;;;;;8.88;2.33;;;17.90;99.90;;;;;;5051495;28;20032;-59
2022/08/21 07:16:29;;;;;;;8.75;2.22;;;18.20;99.90;;;;;;5050979;28;20028;-59
2022/08/21 07:18:54;;;;;;;13.63;2.90;;;18.30;99.90;;;;;;5051410;28;20021;-57
2022/08/21 07:21:20;;;;;;;9.55;2.38;;;18.50;99.90;;;;;;5051282;28;20429;-56
2022/08/21 07:23:49;;;;;;;9.55;2.22;;;19.70;99.90;;;;;;5050993;28;20044;-57
2022/08/21 07:26:17;;;;;;;9.63;2.10;;;21.20;99.90;;;;;;5051052;28;20032;-57
2022/08/21 07:28:43;;;;;;;7.85;1.80;;;22.50;99.90;;;;;;5051200;28;20025;-57
2022/08/21 07:31:13;;;;;;;10.23;1.85;;;21.50;99.90;;;;;;5050909;28;20029;-56
2022/08/21 07:33:39;;;;;;;9.35;2.15;;;21.60;99.90;;;;;;5049602;28;20083;-59
2022/08/21 07:36:05;;;;;;;9.75;2.28;;;22.30;99.90;;;;;;5050852;28;20066;-59
2022/08/21 07:38:31;;;;;;;8.85;2.38;;;22.60;99.90;;;;;;5051281;28;20029;-59
2022/08/21 07:40:59;;;;;;;9.82;2.15;;;22.70;99.90;;;;;;5050811;28;20051;-59
2022/08/21 07:43:25;;;;;;;10.18;2.22;;;22.70;99.90;;;;;;5050691;28;20119;-59
2022/08/21 07:45:50;;;;;;;9.48;2.08;;;22.60;99.90;;;;;;5050628;28;20102;-59
2022/08/21 07:48:16;;;;;;;10.32;2.25;;;22.80;99.90;;;;;;5050751;28;20037;-59
2022/08/21 07:50:42;;;;;;;9.02;2.10;;;22.90;99.90;;;;;;5050903;28;20033;-60
2022/08/21 07:53:08;;;;;;;8.20;2.22;;;23.30;99.90;;;;;;5050559;28;20440;-60
2022/08/21 07:55:34;;;;;;;9.20;2.28;;;23.40;99.90;;;;;;5052748;28;20025;-59
2022/08/21 07:58:00;;;;;;;7.63;1.90;;;22.80;99.90;;;;;;5053621;28;20025;-59
2022/08/21 08:00:27;;;;;;;5.95;1.70;;;22.40;99.90;;;;;;5054601;28;20119;-60
2022/08/21 08:02:54;;;;;;;9.07;2.05;;;22.20;99.90;;;;;;5054711;28;20033;-60
2022/08/21 08:05:23;;;;;;;7.20;1.92;;;22.00;99.90;;;;;;5054665;28;20036;-59
2022/08/21 08:07:49;;;;;;;8.73;2.63;;;22.80;99.90;;;;;;5054682;28;20086;-59
2022/08/21 08:10:16;;;;;;;6.93;2.03;;;22.80;99.90;;;;;;5054710;28;20478;-59
2022/08/21 08:12:43;;;;;;;8.60;2.30;;;22.90;99.90;;;;;;5054249;28;20029;-59
2022/08/21 08:15:22;;;;;;;8.02;2.25;;;23.10;99.90;;;;;;5054574;28;20071;-59
2022/08/21 08:17:48;;;;;;;6.82;2.10;;;23.70;99.90;;;;;;5054579;28;20025;-59
2022/08/21 08:20:15;;;;;;;7.53;2.72;;;23.90;99.90;;;;;;5054328;28;20019;-59
2022/08/21 08:22:42;;;;;;;8.30;2.17;;;25.00;99.90;;;;;;5054222;28;20017;-59
2022/08/21 08:25:10;;;;;;;6.32;1.80;;;25.60;99.90;;;;;;5053183;28;20056;-59
2022/08/21 08:27:36;;;;;;;7.90;1.98;;;25.50;99.90;;;;;;5054162;28;20029;-59
2022/08/21 08:30:02;;;;;;;8.63;2.22;;;25.00;99.90;;;;;;5054590;28;20032;-59
2022/08/21 08:32:28;;;;;;;9.30;2.10;;;24.50;99.90;;;;;;5054186;28;20485;-59
2022/08/21 08:34:53;;;;;;;7.82;1.70;;;24.20;99.90;;;;;;5053961;28;20096;-59
2022/08/21 08:37:20;;;;;;;9.05;2.15;;;24.30;99.90;;;;;;5052939;28;20056;-59
2022/08/21 08:39:46;;;;;;;8.75;2.20;;;24.70;99.90;;;;;;5054147;28;20035;-59
2022/08/21 08:42:14;;;;;;;11.70;2.03;;;23.90;99.90;;;;;;5052415;28;20029;-59
2022/08/21 08:44:45;;;;;;;9.90;2.45;;;24.10;99.90;;;;;;5053798;28;20063;-59
2022/08/21 08:47:15;;;;;;;5.25;1.80;;;24.10;99.90;;;;;;5054019;28;20039;-59
2022/08/21 08:49:53;;;;;;;11.20;3.13;;;24.40;99.90;;;;;;5054382;28;20032;-60
2022/08/21 08:52:34;;;;;;;8.70;1.67;;;25.00;99.90;;;;;;5053756;28;20559;-60
2022/08/21 08:55:11;;;;;;;5.67;1.73;;;24.90;99.90;;;;;;5053693;28;20493;-59
2022/08/21 08:57:37;;;;;;;7.30;1.92;;;25.10;99.90;;;;;;5053883;28;20029;-60
2022/08/21 09:00:10;;;;;;;7.35;2.08;;;25.10;99.90;;;;;;5053610;28;20053;-60
2022/08/21 09:02:41;;;;;;;8.30;2.10;;;24.30;99.90;;;;;;5053476;28;20028;-60
2022/08/21 09:05:13;;;;;;;6.65;1.92;;;23.90;99.90;;;;;;5052076;28;20024;-60
2022/08/21 09:07:47;;;;;;;4.85;1.48;;;23.70;99.90;;;;;;5053745;28;20115;-60
2022/08/21 09:10:28;;;;;;;7.13;1.60;;;23.60;99.90;;;;;;5054099;28;20036;-60
2022/08/21 09:13:15;;;;;;;7.18;2.00;;;24.00;99.90;;;;;;5053412;28;20179;-60
2022/08/21 09:16:03;;;;;;;8.18;1.80;;;25.10;99.90;;;;;;5052335;28;20033;-61
2022/08/21 09:18:50;;;;;;;6.80;1.95;;;26.10;99.90;;;;;;5052056;28;20503;-61
2022/08/21 09:21:54;;;;;;;5.70;1.83;;;25.30;99.90;;;;;;5053442;28;20496;-60
2022/08/21 09:24:31;;;;;;;5.95;1.73;;;24.40;99.90;;;;;;5053248;28;20025;-60
2022/08/21 09:27:02;;;;;;;10.65;1.95;;;24.60;99.90;;;;;;5053087;28;20481;-61
2022/08/21 09:29:31;;;;;;;7.95;2.00;;;24.20;99.90;;;;;;5053389;28;20037;-60
2022/08/21 09:31:57;;;;;;;6.60;1.80;;;23.50;99.90;;;;;;5053214;28;20075;-58
2022/08/21 09:34:28;;;;;;;11.95;2.40;;;23.20;99.90;;;;;;5053022;28;20061;-58
2022/08/21 09:36:55;;;;;;;7.03;1.77;;;23.20;99.90;;;;;;5052924;28;20036;-58
2022/08/21 09:39:31;;;;;;;8.35;1.77;;;23.80;99.90;;;;;;5053168;28;20117;-60
2022/08/21 09:41:58;;;;;;;9.88;1.90;;;24.70;99.90;;;;;;5052863;28;20029;-60
2022/08/21 09:44:31;;;;;;;5.47;1.67;;;24.50;99.90;;;;;;5052881;28;20028;-59
2022/08/21 09:46:57;;;;;;;8.02;2.25;;;24.10;99.90;;;;;;5052795;28;20025;-61
2022/08/21 09:49:31;;;;;;;13.48;2.13;;;23.90;99.90;;;;;;5053334;28;20036;-59
2022/08/21 09:51:58;;;;;;;7.85;2.00;;;24.70;99.90;;;;;;5052753;28;20045;-60
2022/08/21 09:54:31;;;;;;;10.50;1.80;;;25.40;99.90;;;;;;5052423;28;20428;-60
2022/08/21 09:59:47;;;;;;;10.05;1.83;;;26.90;99.90;;;;;;5052783;28;20075;-60
2022/08/21 10:02:24;;;;;;;8.90;1.80;;;25.80;99.90;;;;;;5052250;28;20025;-60
2022/08/21 10:04:59;;;;;;;8.80;2.10;;;25.50;99.90;;;;;;5051025;28;20520;-60
2022/08/21 10:07:27;;;;;;;6.85;2.00;;;25.00;99.90;;;;;;5052368;28;20029;-59
2022/08/21 10:10:21;;;;;;;7.13;1.88;;;24.20;99.90;;;;;;5052734;28;20087;-60
2022/08/21 10:13:12;;;;;;;8.00;1.70;;;24.10;99.90;;;;;;5051700;28;20087;-60
2022/08/21 10:16:00;;;;;;;13.80;2.50;;;24.10;99.90;;;;;;5051305;28;20025;-60
2022/08/21 10:19:06;;;;;;;8.30;1.70;;;24.30;99.90;;;;;;5051453;28;20029;-60
2022/08/21 10:21:56;;;;;;;9.43;2.40;;;24.90;99.90;;;;;;5032448;28;20036;-60
2022/08/21 10:24:42;;;;;;;5.68;1.63;;;25.50;99.90;;;;;;5051933;28;20041;-60
2022/08/21 10:27:26;;;;;;;6.95;2.10;;;25.90;99.90;;;;;;5052128;28;20094;-60
2022/08/21 10:29:59;;;;;;;9.38;2.30;;;26.00;99.90;;;;;;5052281;28;20404;-60
2022/08/21 10:32:55;;;;;;;10.45;2.63;;;25.40;99.90;;;;;;5052008;28;20048;-60
2022/08/21 10:35:33;;;;;;;8.48;2.00;;;25.70;99.90;;;;;;5051874;28;20036;-60
2022/08/21 10:38:38;;;;;;;8.68;2.08;;;26.30;99.90;;;;;;5052309;28;20072;-60
2022/08/21 10:41:27;;;;;;;11.55;2.47;;;26.80;99.90;;;;;;5051751;28;20542;-60
2022/08/21 10:44:23;;;;;;;8.85;2.10;;;27.30;98.40;;;;;;5050441;28;20037;-60
2022/08/21 10:47:03;;;;;;;6.95;1.77;;;26.80;98.30;;;;;;5051592;28;20021;-60
2022/08/21 10:49:48;;;;;;;11.85;2.70;;;26.00;99.90;;;;;;5051756;28;20028;-60
2022/08/21 10:52:32;;;;;;;8.05;2.08;;;25.40;99.90;;;;;;5051705;28;20486;-60
2022/08/21 10:55:08;;;;;;;9.13;2.15;;;26.20;99.90;;;;;;5050281;28;20041;-61
2022/08/21 10:57:45;;;;;;;8.98;2.40;;;26.40;99.60;;;;;;5051097;28;20033;-61
2022/08/21 11:00:44;;;;;;;7.22;2.47;;;26.30;99.30;;;;;;5051381;28;20052;-60
2022/08/21 11:03:32;;;;;;;9.85;2.22;;;25.70;99.90;;;;;;5050266;28;20037;-61
2022/08/21 11:06:06;;;;;;;7.57;2.10;;;26.30;99.90;;;;;;5051209;28;20017;-60
2022/08/21 11:08:40;;;;;;;9.05;1.77;;;26.50;99.40;;;;;;5050342;28;20056;-60
2022/08/21 11:11:20;;;;;;;12.18;2.80;;;26.20;99.90;;;;;;5051353;28;20075;-60
2022/08/21 11:13:51;;;;;;;12.15;2.35;;;25.60;99.90;;;;;;5051184;28;20040;-60
2022/08/21 11:16:43;;;;;;;11.48;2.67;;;25.70;99.90;;;;;;5051062;28;20025;-61
2022/08/21 11:19:18;;;;;;;8.05;2.35;;;26.10;99.90;;;;;;5050136;28;20032;-61
2022/08/21 11:22:01;;;;;;;6.97;2.20;;;26.70;99.40;;;;;;5051368;28;20104;-59
2022/08/21 11:24:44;;;;;;;10.95;2.60;;;27.10;98.40;;;;;;5051217;28;20033;-59
2022/08/21 11:27:22;;;;;;;8.75;2.33;;;27.10;98.40;;;;;;5051477;28;20033;-61
2022/08/21 11:29:57;;;;;;;7.00;1.92;;;27.30;98.00;;;;;;5051289;28;20021;-62
2022/08/21 11:33:08;;;;;;;9.02;2.30;;;28.30;96.20;;;;;;5051045;28;20441;-61
2022/08/21 11:36:03;;;;;;;12.10;2.28;;;29.20;93.70;;;;;;5045977;28;20116;-61
2022/08/21 11:38:44;;;;;;;7.85;2.13;;;30.10;91.70;;;;;;5050960;28;20489;-61
2022/08/21 11:41:27;;;;;;;7.00;2.50;;;31.50;86.90;;;;;;5050678;28;20024;-61
2022/08/21 11:44:27;;;;;;;7.60;2.15;;;30.20;87.60;;;;;;5050779;28;20048;-61
2022/08/21 11:47:11;;;;;;;9.45;1.98;;;28.30;91.60;;;;;;5043041;28;20044;-61
2022/08/21 11:49:53;;;;;;;10.00;2.22;;;27.40;94.10;;;;;;5050974;28;20028;-60
2022/08/21 11:52:32;;;;;;;9.40;2.17;;;27.20;95.60;;;;;;5050662;28;20071;-61
2022/08/21 11:55:06;;;;;;;8.23;2.15;;;27.20;94.80;;;;;;5050590;28;20070;-60
2022/08/21 11:57:44;;;;;;;8.50;2.13;;;27.10;95.00;;;;;;5049072;28;20459;-60
2022/08/21 12:00:30;;;;;;;11.02;2.28;;;27.90;94.00;;;;;;5050642;28;20422;-61
2022/08/21 12:03:06;;;;;;;8.05;1.98;;;28.10;92.40;;;;;;5051036;28;20047;-61
2022/08/21 12:05:39;;;;;;;11.07;2.30;;;27.60;93.20;;;;;;5050441;28;20032;-60
2022/08/21 12:08:09;;;;;;;9.95;2.25;;;27.00;94.20;;;;;;5050745;28;20068;-60
2022/08/21 12:10:42;;;;;;;8.80;2.53;;;27.10;94.70;;;;;;5050338;28;20028;-61
2022/08/21 12:13:12;;;;;;;9.98;2.20;;;27.50;94.10;;;;;;5050701;28;20086;-62
2022/08/21 12:15:37;;;;;;;8.90;2.45;;;28.50;92.90;;;;;;5050554;28;20107;-61
2022/08/21 12:18:43;;;;;;;9.73;2.10;;;29.50;90.90;;;;;;5049456;28;20117;-62
2022/08/21 12:21:23;;;;;;;7.68;2.58;;;28.40;91.30;;;;;;4991873;28;20380;-61
2022/08/21 12:24:16;;;;;;;7.57;2.00;;;28.20;92.00;;;;;;5007604;28;20542;-61
2022/08/21 12:27:12;;;;;;;;;;;27.50;94.40;;;;;;5030130;28;20036;-61
2022/08/21 12:29:45;;;;;;;11.32;2.60;;;27.00;94.80;;;;;;5049224;28;19909;-61
2022/08/21 12:32:10;;;;;;;;;;;26.30;95.90;;;;;;5049594;28;20076;-60
2022/08/21 12:34:56;;;;;;;8.35;2.20;;;25.70;97.30;;;;;;5030082;28;20441;-60
2022/08/21 12:37:45;;;;;;;9.25;1.98;;;25.10;99.10;;;;;;5042203;28;20025;-60
2022/08/21 12:40:30;;;;;;;5.72;1.77;;;24.90;99.90;;;;;;5049399;28;20025;-61
2022/08/21 12:43:00;;;;;;;8.73;2.17;;;24.80;99.90;;;;;;5034036;28;20057;-61
2022/08/21 12:45:43;;;;;;;5.57;1.92;;;25.30;99.90;;;;;;5051130;28;20021;-61
2022/08/21 12:48:15;;;;;;;6.88;1.98;;;25.60;99.70;;;;;;5054260;28;20033;-58
2022/08/21 12:50:44;;;;;;;11.23;2.10;;;25.90;98.60;;;;;;5052625;28;20120;-58
2022/08/21 12:53:22;;;;;;;12.65;2.40;;;26.40;97.30;;;;;;5045519;28;20050;-61
2022/08/21 12:55:48;;;;;;;9.23;2.28;;;26.70;96.40;;;;;;5043786;28;20025;-60
2022/08/21 12:58:22;;;;;;;8.50;2.40;;;26.70;96.90;;;;;;5053862;28;20104;-61
2022/08/21 13:00:51;;;;;;;9.32;2.00;;;27.30;96.10;;;;;;5049616;28;20037;-60
2022/08/21 13:03:17;;;;;;;11.85;2.13;;;28.50;93.20;;;;;;5033689;28;20030;-61